Liberty — WDC2845 — position and weather

sailwx.info

Track history (hours):
 
Tides and Currents Weather Stations Pressure Air Temp Water Temp Dewpoint Dewpoint Depression Visibility Wind Speed Wind Dir Waves Ship Positions

Liberty

Owner: AMNAV Maritime Corporation, Oakland, CA. More information available from US FCC via Universal Licensing System and Coast Guard Vessel Documentation Center.

Last reported at 2018-Feb-23 00:30 UTC. Time now 2018-Feb-23 00:57 UTC.
Position N 37°45' W 122°23'.

Length 20 m; draft 4.6 m.

Type: Towing. MMSI: 366998510.

Date/timePositionNaut miles runAvg speedWind from/ knotsBaromVisibWave heightAir tempDewpointWater temp
2018-Feb-23 00:30N 37°45' W 122°23'0 0.7
2018-Feb-23 00:01N 37°45' W 122°22'3 6.8
2018-Feb-22 23:30N 37°48' W 122°21'2 3.7
2018-Feb-22 23:00N 37°47' W 122°21'2 3.7
2018-Feb-22 22:30N 37°48' W 122°21'2 3.6
2018-Feb-22 22:00N 37°49' W 122°19'0 0.0
2018-Feb-22 21:30N 37°49' W 122°19'0 0.0
2018-Feb-22 21:00N 37°49' W 122°19'0 0.0
2018-Feb-22 20:30N 37°49' W 122°19'0 0.0
2018-Feb-22 20:00N 37°49' W 122°19'0 0.0
2018-Feb-22 19:30N 37°49' W 122°19'0 0.0
2018-Feb-22 19:00N 37°49' W 122°19'0 0.0
2018-Feb-22 18:30N 37°49' W 122°19'0 0.0
2018-Feb-22 18:00N 37°49' W 122°19'0 0.0
2018-Feb-22 17:30N 37°49' W 122°19'0 0.0
2018-Feb-22 17:00N 37°49' W 122°19'0 0.0
2018-Feb-22 16:29N 37°49' W 122°19'0 0.0
2018-Feb-22 16:00N 37°49' W 122°19'0 0.0
2018-Feb-22 15:30N 37°49' W 122°19'0 0.0
2018-Feb-22 15:00N 37°49' W 122°19'0 0.0
2018-Feb-22 14:30N 37°49' W 122°19'0 0.0
2018-Feb-22 14:01N 37°49' W 122°19'0 0.0
2018-Feb-22 13:30N 37°49' W 122°19'0 0.0
2018-Feb-22 13:00N 37°49' W 122°19'2 3.3
2018-Feb-22 12:30N 37°48' W 122°20'0 0.5
2018-Feb-22 12:00N 37°48' W 122°20'0 0.0
2018-Feb-22 11:30N 37°48' W 122°20'0 0.0
2018-Feb-22 11:00N 37°48' W 122°20'0 0.0
2018-Feb-22 10:30N 37°48' W 122°20'4 7.4
2018-Feb-22 10:00N 37°45' W 122°22'0 0.1
2018-Feb-22 09:30N 37°45' W 122°23'0 0.4
2018-Feb-22 09:00N 37°45' W 122°22'0 0.3
2018-Feb-22 08:30N 37°45' W 122°22'0 0.3
2018-Feb-22 08:00N 37°45' W 122°23'2 3.2
2018-Feb-22 07:31N 37°46' W 122°22'4 7.3
2018-Feb-22 07:01N 37°49' W 122°19'0 0.0
2018-Feb-22 06:31N 37°49' W 122°19'0 0.1
2018-Feb-22 06:00N 37°49' W 122°19'0 0.1
2018-Feb-22 05:30N 37°49' W 122°19'0 0.0
2018-Feb-22 05:00N 37°49' W 122°19'0 0.0
2018-Feb-22 04:31N 37°49' W 122°19'0 0.0
2018-Feb-22 04:01N 37°49' W 122°19'1 1.8
2018-Feb-22 03:30N 37°49' W 122°20'1 2.6
2018-Feb-22 03:00N 37°48' W 122°19'0 0.1
2018-Feb-22 02:30N 37°48' W 122°19'0 0.0
2018-Feb-22 02:00N 37°48' W 122°19'1 2.5
2018-Feb-22 01:30N 37°49' W 122°20'1 2.6
2018-Feb-22 01:00N 37°48' W 122°21'1 1.2
2018-Feb-22 00:31N 37°48' W 122°21'5 9.1
2018-Feb-22 00:00N 37°52' W 122°24'3 5.5
2018-Feb-21 23:30N 37°55' W 122°24'4 9.0
2018-Feb-21 23:01N 37°59' W 122°25'510.2
2018-Feb-21 22:30N 38°03' W 122°20'4 8.9
2018-Feb-21 22:00N 38°04' W 122°15'0 0.0
2018-Feb-21 21:31N 38°04' W 122°15'3 1.2
2018-Feb-21 19:18N 38°03' W 122°18'6 8.9
2018-Feb-21 18:40N 38°00' W 122°24'210.0
2018-Feb-21 18:30N 37°59' W 122°25'5 9.3
2018-Feb-21 18:00N 37°54' W 122°25'510.4
2018-Feb-21 17:30N 37°50' W 122°22'2 5.0
2018-Feb-21 17:00N 37°49' W 122°19'0 0.0
2018-Feb-21 16:30N 37°49' W 122°19'0 0.0
2018-Feb-21 16:00N 37°49' W 122°19'0 0.0
2018-Feb-21 15:30N 37°49' W 122°19'0 0.0
2018-Feb-21 15:00N 37°49' W 122°19'1 1.3
2018-Feb-21 14:30N 37°49' W 122°19'2 3.4
2018-Feb-21 14:01N 37°48' W 122°18'0 0.0
2018-Feb-21 13:30N 37°48' W 122°18'0 0.1
2018-Feb-21 13:00N 37°48' W 122°18'2 4.7
2018-Feb-21 12:30N 37°48' W 122°21'1 1.4
2018-Feb-21 12:00N 37°49' W 122°21'510.7
2018-Feb-21 11:30N 37°53' W 122°25'2 3.3
2018-Feb-21 11:00N 37°54' W 122°23'1 2.7
2018-Feb-21 10:31N 37°55' W 122°22'0 0.3
2018-Feb-21 10:01N 37°55' W 122°22'1 1.5
2018-Feb-21 09:31N 37°54' W 122°22'1 2.4
2018-Feb-21 09:00N 37°55' W 122°23'0 0.0
2018-Feb-21 08:30N 37°55' W 122°23'0 0.0
2018-Feb-21 08:00N 37°55' W 122°23'0 0.0
2018-Feb-21 07:30N 37°55' W 122°23'0 0.0
2018-Feb-21 07:00N 37°55' W 122°23'0 0.0
2018-Feb-21 06:30N 37°55' W 122°23'0 0.0
2018-Feb-21 06:00N 37°55' W 122°23'0 0.0
2018-Feb-21 05:30N 37°55' W 122°23'0 0.0
2018-Feb-21 05:00N 37°55' W 122°23'0 0.0
2018-Feb-21 04:30N 37°55' W 122°23'1 2.4
2018-Feb-21 04:00N 37°54' W 122°22'0 0.3
2018-Feb-21 03:30N 37°54' W 122°22'2 4.3
2018-Feb-21 03:00N 37°55' W 122°24'2 4.2
2018-Feb-21 02:30N 37°53' W 122°25'0 0.3
2018-Feb-21 02:00N 37°53' W 122°25'4 8.9
2018-Feb-21 01:30N 37°49' W 122°21'1 2.7
2018-Feb-21 01:00N 37°49' W 122°20'0 0.9
2018-Feb-21 00:30N 37°49' W 122°20'1 2.8
2018-Feb-21 00:00N 37°48' W 122°19'1 1.7
2018-Feb-20 23:31N 37°48' W 122°18'0 0.4
2018-Feb-20 23:00N 37°48' W 122°18'1 3.0
2018-Feb-20 22:30N 37°48' W 122°19'2 4.2
2018-Feb-20 22:00N 37°48' W 122°22'1 2.4
2018-Feb-20 21:30N 37°48' W 122°21'0 0.1
2018-Feb-20 21:00N 37°48' W 122°21'0 0.0
2018-Feb-20 20:30N 37°48' W 122°21'0 0.1
2018-Feb-20 20:00N 37°48' W 122°21'2 4.6
2018-Feb-20 19:30N 37°50' W 122°22'611.1
2018-Feb-20 19:01N 37°55' W 122°25'1 1.3
2018-Feb-20 18:30N 37°56' W 122°25'1 1.2
2018-Feb-20 18:00N 37°55' W 122°25'1 2.6
2018-Feb-20 17:30N 37°55' W 122°23'0 0.0
2018-Feb-20 17:00N 37°55' W 122°23'0 0.0
2018-Feb-20 16:30N 37°55' W 122°23'0 0.0
2018-Feb-20 16:00N 37°55' W 122°23'0 0.0
2018-Feb-20 15:30N 37°54' W 122°23'5 9.7
2018-Feb-20 15:00N 37°59' W 122°25'712.7
2018-Feb-20 14:28N 38°03' W 122°18'4 9.2
2018-Feb-20 14:00N 38°03' W 122°13'0 0.2
2018-Feb-20 13:30N 38°04' W 122°13'1 2.7
2018-Feb-20 13:01N 38°03' W 122°15'0 0.0
2018-Feb-20 12:30N 38°03' W 122°15'0 0.0
2018-Feb-20 12:00N 38°03' W 122°15'0 0.0
2018-Feb-20 11:30N 38°03' W 122°15'0 0.0
2018-Feb-20 11:00N 38°03' W 122°15'0 0.0
2018-Feb-20 10:30N 38°03' W 122°15'0 0.0
2018-Feb-20 10:00N 38°03' W 122°15'0 0.0
2018-Feb-20 09:31N 38°03' W 122°15'0 0.0
2018-Feb-20 09:00N 38°03' W 122°15'0 0.0
2018-Feb-20 08:30N 38°03' W 122°15'1 1.1
2018-Feb-20 08:00N 38°03' W 122°15'611.3
2018-Feb-20 07:31N 38°02' W 122°22'611.6
2018-Feb-20 07:00N 37°56' W 122°26'611.7
2018-Feb-20 06:30N 37°51' W 122°23'4 7.9
2018-Feb-20 06:00N 37°49' W 122°19'0 0.0
2018-Feb-20 05:30N 37°49' W 122°19'0 0.0
2018-Feb-20 05:00N 37°49' W 122°19'0 0.0
2018-Feb-20 04:30N 37°49' W 122°19'0 0.0
2018-Feb-20 04:00N 37°49' W 122°19'0 0.0
2018-Feb-20 03:30N 37°49' W 122°19'0 0.0
2018-Feb-20 03:00N 37°49' W 122°19'0 0.0
2018-Feb-20 02:30N 37°49' W 122°19'0 0.0
2018-Feb-20 02:00N 37°49' W 122°19'0 0.0
2018-Feb-20 01:30N 37°49' W 122°19'0 0.0
2018-Feb-20 01:00N 37°49' W 122°19'0 0.0
2018-Feb-20 00:30N 37°49' W 122°19'0 0.0
2018-Feb-20 00:00N 37°49' W 122°19'0 0.0
2018-Feb-19 23:30N 37°49' W 122°19'0 0.0
2018-Feb-19 23:00N 37°49' W 122°19'0 0.0
2018-Feb-19 22:30N 37°49' W 122°19'0 0.0
2018-Feb-19 22:00N 37°49' W 122°19'0 0.0
2018-Feb-19 21:30N 37°49' W 122°19'0 0.0
2018-Feb-19 21:00N 37°49' W 122°19'0 0.0
2018-Feb-19 20:30N 37°49' W 122°19'0 0.0
2018-Feb-19 20:00N 37°49' W 122°19'0 0.0
2018-Feb-19 19:30N 37°49' W 122°19'0 0.0
2018-Feb-19 19:00N 37°49' W 122°19'0 0.0
2018-Feb-19 18:30N 37°49' W 122°19'0 0.0
2018-Feb-19 18:00N 37°49' W 122°19'0 0.0
2018-Feb-19 17:30N 37°49' W 122°19'0 0.0
2018-Feb-19 17:00N 37°49' W 122°19'0 0.0
2018-Feb-19 16:30N 37°49' W 122°19'0 0.0
2018-Feb-19 16:00N 37°49' W 122°19'0 0.0
2018-Feb-19 15:30N 37°49' W 122°19'0 0.0
2018-Feb-19 15:00N 37°49' W 122°19'0 0.0
2018-Feb-19 14:30N 37°49' W 122°19'0 0.0
2018-Feb-19 14:00N 37°49' W 122°19'0 0.0
2018-Feb-19 13:29N 37°49' W 122°19'2 3.5
2018-Feb-19 13:00N 37°48' W 122°19'0 0.3
2018-Feb-19 12:30N 37°48' W 122°18'3 5.6
2018-Feb-19 12:00N 37°48' W 122°22'3 6.6
2018-Feb-19 11:30N 37°48' W 122°18'0 0.9
2018-Feb-19 11:00N 37°48' W 122°18'0 0.4
2018-Feb-19 10:30N 37°48' W 122°19'0 0.3
2018-Feb-19 10:01N 37°48' W 122°19'2 3.2
2018-Feb-19 09:30N 37°48' W 122°21'0 0.0
2018-Feb-19 09:00N 37°48' W 122°21'0 0.0
2018-Feb-19 08:30N 37°48' W 122°21'0 0.0
2018-Feb-19 08:00N 37°48' W 122°21'0 0.0
2018-Feb-19 07:30N 37°48' W 122°21'0 0.0
2018-Feb-19 07:00N 37°48' W 122°21'0 0.0
2018-Feb-19 06:30N 37°48' W 122°21'0 0.0
2018-Feb-19 06:00N 37°48' W 122°21'0 0.0
2018-Feb-19 05:30N 37°48' W 122°21'0 0.0
2018-Feb-19 05:01N 37°48' W 122°21'2 3.0
2018-Feb-19 04:30N 37°48' W 122°19'0 0.1
2018-Feb-19 04:00N 37°48' W 122°19'1 2.3
2018-Feb-19 03:30N 37°48' W 122°17'1 2.4
2018-Feb-19 03:00N 37°48' W 122°19'3 5.4
2018-Feb-19 02:30N 37°48' W 122°22'2 4.2
2018-Feb-19 02:01N 37°49' W 122°20'1 2.2
2018-Feb-19 01:30N 37°49' W 122°19'0 0.0
2018-Feb-19 01:00N 37°49' W 122°19'0 0.0
2018-Feb-19 00:30N 37°49' W 122°19'0 0.0
2018-Feb-19 00:00N 37°49' W 122°19'0 0.0
2018-Feb-18 23:30N 37°49' W 122°19'0 0.0
2018-Feb-18 23:00N 37°49' W 122°19'0 0.0
2018-Feb-18 22:30N 37°49' W 122°19'0 0.0
2018-Feb-18 22:00N 37°49' W 122°19'0 0.0
2018-Feb-18 21:30N 37°49' W 122°19'0 0.0
2018-Feb-18 21:00N 37°49' W 122°19'0 0.0
2018-Feb-18 20:30N 37°49' W 122°19'0 0.0
2018-Feb-18 20:00N 37°49' W 122°19'0 0.0
2018-Feb-18 19:30N 37°49' W 122°19'0 0.0
2018-Feb-18 19:00N 37°49' W 122°19'0 0.0
2018-Feb-18 18:30N 37°49' W 122°19'0 0.0
2018-Feb-18 18:00N 37°49' W 122°19'0 0.0
2018-Feb-18 17:30N 37°49' W 122°19'0 0.0
2018-Feb-18 17:00N 37°49' W 122°19'0 0.0
2018-Feb-18 16:30N 37°49' W 122°19'0 0.0
2018-Feb-18 16:00N 37°49' W 122°19'0 0.0
2018-Feb-18 15:30N 37°49' W 122°19'0 0.0
2018-Feb-18 15:00N 37°49' W 122°19'0 0.0
2018-Feb-18 14:30N 37°49' W 122°19'0 0.0
2018-Feb-18 14:00N 37°49' W 122°19'0 0.0
2018-Feb-18 13:30N 37°49' W 122°19'0 0.0
2018-Feb-18 13:00N 37°49' W 122°19'0 0.0
2018-Feb-18 12:30N 37°49' W 122°19'0 0.0
2018-Feb-18 12:00N 37°49' W 122°19'0 0.0
2018-Feb-18 11:30N 37°49' W 122°19'0 0.0
2018-Feb-18 11:00N 37°49' W 122°19'0 0.0
2018-Feb-18 10:30N 37°49' W 122°19'0 0.0
2018-Feb-18 10:00N 37°49' W 122°19'0 0.0
2018-Feb-18 09:30N 37°49' W 122°19'0 0.0
2018-Feb-18 09:00N 37°49' W 122°19'0 0.0
2018-Feb-18 08:30N 37°49' W 122°19'0 0.0
2018-Feb-18 08:00N 37°49' W 122°19'0 0.0
2018-Feb-18 07:30N 37°49' W 122°19'0 0.0
2018-Feb-18 07:00N 37°49' W 122°19'0 0.0
2018-Feb-18 06:30N 37°49' W 122°19'0 0.0
2018-Feb-18 06:00N 37°49' W 122°19'0 0.0
2018-Feb-18 05:30N 37°49' W 122°19'0 0.0
2018-Feb-18 05:00N 37°49' W 122°19'0 0.0
2018-Feb-18 04:30N 37°49' W 122°19'0 0.0
2018-Feb-18 04:00N 37°49' W 122°19'0 0.0
2018-Feb-18 03:30N 37°49' W 122°19'0 0.0
2018-Feb-18 03:00N 37°49' W 122°19'0 0.0
2018-Feb-18 02:30N 37°49' W 122°19'0 0.0
2018-Feb-18 02:00N 37°49' W 122°19'0 0.0
2018-Feb-18 01:30N 37°49' W 122°19'0 0.0
2018-Feb-18 01:00N 37°49' W 122°19'0 0.0
2018-Feb-18 00:30N 37°49' W 122°19'0 0.0
2018-Feb-18 00:00N 37°49' W 122°19'0 0.0
2018-Feb-17 23:30N 37°49' W 122°19'0 0.0
2018-Feb-17 23:00N 37°49' W 122°19'0 0.0
2018-Feb-17 22:30N 37°49' W 122°19'0 0.0
2018-Feb-17 22:00N 37°49' W 122°19'0 0.0
2018-Feb-17 21:30N 37°49' W 122°19'0 0.0
2018-Feb-17 21:00N 37°49' W 122°19'0 0.0
2018-Feb-17 20:30N 37°49' W 122°19'0 0.0
2018-Feb-17 20:00N 37°49' W 122°19'0 0.0
2018-Feb-17 19:30N 37°49' W 122°19'0 0.0
2018-Feb-17 19:00N 37°49' W 122°19'0 0.0
2018-Feb-17 18:30N 37°49' W 122°19'0 0.0
2018-Feb-17 18:00N 37°49' W 122°19'0 0.0
2018-Feb-17 17:30N 37°49' W 122°19'0 0.0
2018-Feb-17 17:00N 37°49' W 122°19'0 0.0
2018-Feb-17 16:30N 37°49' W 122°19'0 0.0
2018-Feb-17 16:00N 37°49' W 122°19'0 0.0
2018-Feb-17 15:30N 37°49' W 122°19'0 0.0
2018-Feb-17 15:00N 37°49' W 122°19'2 3.2
2018-Feb-17 14:30N 37°49' W 122°20'1 2.1
2018-Feb-17 14:00N 37°48' W 122°19'2 3.6
2018-Feb-17 13:30N 37°48' W 122°22'2 4.8
2018-Feb-17 13:00N 37°49' W 122°19'0 0.5
2018-Feb-17 12:30N 37°49' W 122°19'0 0.0
2018-Feb-17 12:00N 37°49' W 122°19'0 0.0
2018-Feb-17 11:30N 37°49' W 122°19'0 0.0
2018-Feb-17 11:00N 37°49' W 122°19'0 0.0
2018-Feb-17 10:30N 37°49' W 122°19'0 0.0
2018-Feb-17 10:00N 37°49' W 122°19'0 0.0
2018-Feb-17 09:30N 37°49' W 122°19'0 0.0
2018-Feb-17 09:00N 37°49' W 122°19'0 0.0
2018-Feb-17 08:30N 37°49' W 122°19'0 0.0
2018-Feb-17 08:00N 37°49' W 122°19'0 0.0
2018-Feb-17 07:30N 37°49' W 122°19'0 0.0
2018-Feb-17 07:00N 37°49' W 122°19'0 0.0
2018-Feb-17 06:30N 37°49' W 122°19'0 0.0
2018-Feb-17 06:00N 37°49' W 122°19'0 0.0
2018-Feb-17 05:30N 37°49' W 122°19'0 0.0
2018-Feb-17 05:00N 37°49' W 122°19'4 7.5
2018-Feb-17 04:30N 37°51' W 122°23'612.3
2018-Feb-17 04:00N 37°57' W 122°26'612.3
2018-Feb-17 03:30N 38°02' W 122°21'2 3.8
2018-Feb-17 03:00N 38°03' W 122°19'4 8.8
2018-Feb-17 02:31N 38°01' W 122°24'5 9.0
2018-Feb-17 02:00N 37°56' W 122°26'3 5.9
2018-Feb-17 01:30N 37°54' W 122°23'1 1.7
2018-Feb-17 01:00N 37°54' W 122°22'0 0.2
2018-Feb-17 00:31N 37°54' W 122°22'1 2.4
2018-Feb-17 00:00N 37°55' W 122°23'0 0.0
2018-Feb-16 23:30N 37°55' W 122°23'0 0.0
2018-Feb-16 23:00N 37°55' W 122°23'0 0.0
2018-Feb-16 22:30N 37°55' W 122°23'0 0.0
2018-Feb-16 22:00N 37°55' W 122°23'0 0.0
2018-Feb-16 21:30N 37°55' W 122°23'2 3.1
2018-Feb-16 21:01N 37°55' W 122°25'0 0.1
2018-Feb-16 20:30N 37°55' W 122°25'3 6.1
2018-Feb-16 20:00N 37°52' W 122°24'510.1
2018-Feb-16 19:30N 37°49' W 122°19'1 1.5
2018-Feb-16 19:00N 37°49' W 122°19'0 0.0
2018-Feb-16 18:30N 37°49' W 122°19'0 0.0
2018-Feb-16 18:00N 37°49' W 122°19'0 0.0
2018-Feb-16 17:30N 37°49' W 122°19'0 0.0
2018-Feb-16 17:00N 37°49' W 122°19'0 0.0
2018-Feb-16 16:30N 37°49' W 122°19'0 0.0
2018-Feb-16 16:00N 37°49' W 122°19'0 0.0
2018-Feb-16 15:30N 37°49' W 122°19'0 0.0
2018-Feb-16 15:00N 37°49' W 122°19'2 3.8
2018-Feb-16 14:30N 37°48' W 122°21'3 5.1
2018-Feb-16 14:00N 37°48' W 122°24'1 2.3
2018-Feb-16 13:30N 37°49' W 122°25'1 2.0
2018-Feb-16 13:01N 37°48' W 122°24'0 0.0
2018-Feb-16 12:30N 37°48' W 122°24'0 0.0
2018-Feb-16 12:00N 37°48' W 122°24'0 0.0
2018-Feb-16 11:30N 37°48' W 122°24'0 0.0
2018-Feb-16 11:01N 37°48' W 122°24'0 0.0
2018-Feb-16 10:30N 37°48' W 122°24'0 0.0
2018-Feb-16 10:00N 37°48' W 122°24'3 5.2
2018-Feb-16 09:30N 37°51' W 122°24'5 9.0
2018-Feb-16 09:00N 37°56' W 122°25'0 0.1
2018-Feb-16 08:30N 37°56' W 122°25'0 0.6
2018-Feb-16 08:00N 37°55' W 122°25'3 5.0
2018-Feb-16 07:30N 37°53' W 122°25'2 3.7
2018-Feb-16 07:00N 37°54' W 122°24'0 0.4
2018-Feb-16 06:30N 37°55' W 122°23'0 0.0
2018-Feb-16 06:00N 37°55' W 122°23'0 0.0
2018-Feb-16 05:30N 37°55' W 122°23'0 0.0
2018-Feb-16 05:00N 37°55' W 122°23'0 0.0
2018-Feb-16 04:30N 37°55' W 122°23'1 2.4
2018-Feb-16 04:00N 37°54' W 122°22'0 0.4
2018-Feb-16 03:30N 37°54' W 122°22'0 0.5
2018-Feb-16 03:01N 37°54' W 122°22'2 3.9
2018-Feb-16 02:31N 37°54' W 122°24'4 7.6
2018-Feb-16 02:00N 37°51' W 122°23'3 6.8
2018-Feb-16 01:30N 37°49' W 122°19'0 0.0
2018-Feb-16 01:00N 37°49' W 122°19'0 0.0
2018-Feb-16 00:30N 37°49' W 122°19'0 0.0
2018-Feb-16 00:00N 37°49' W 122°19'0 0.0
2018-Feb-15 23:30N 37°49' W 122°19'0 0.0
2018-Feb-15 23:00N 37°49' W 122°19'0 0.0
2018-Feb-15 22:30N 37°49' W 122°19'0 0.0
2018-Feb-15 22:00N 37°49' W 122°19'0 0.0
2018-Feb-15 21:30N 37°49' W 122°19'0 0.0
2018-Feb-15 21:00N 37°49' W 122°19'0 0.0
2018-Feb-15 20:30N 37°49' W 122°19'0 0.0
2018-Feb-15 20:00N 37°49' W 122°19'0 0.0
2018-Feb-15 19:30N 37°49' W 122°19'0 0.0
2018-Feb-15 19:00N 37°49' W 122°19'0 0.0
2018-Feb-15 18:30N 37°49' W 122°19'0 0.0
2018-Feb-15 18:00N 37°49' W 122°19'0 0.0
2018-Feb-15 17:30N 37°49' W 122°19'0 0.0
2018-Feb-15 17:00N 37°49' W 122°19'0 0.0
2018-Feb-15 16:30N 37°49' W 122°19'0 0.0
2018-Feb-15 16:00N 37°49' W 122°19'0 0.0
2018-Feb-15 15:30N 37°49' W 122°19'0 0.0
2018-Feb-15 15:00N 37°49' W 122°19'0 0.0
2018-Feb-15 14:30N 37°49' W 122°19'0 0.0
2018-Feb-15 14:00N 37°49' W 122°19'0 0.0
2018-Feb-15 13:30N 37°49' W 122°19'0 0.0
2018-Feb-15 13:00N 37°49' W 122°19'0 0.0
2018-Feb-15 12:30N 37°49' W 122°19'0 0.0
2018-Feb-15 12:00N 37°49' W 122°19'0 0.0
2018-Feb-15 11:30N 37°49' W 122°19'0 0.0
2018-Feb-15 11:00N 37°49' W 122°19'0 0.0
2018-Feb-15 10:30N 37°49' W 122°19'2 3.1
2018-Feb-15 10:00N 37°48' W 122°19'1 1.9
2018-Feb-15 09:30N 37°48' W 122°18'1 1.5
2018-Feb-15 09:00N 37°48' W 122°19'2 3.2
2018-Feb-15 08:30N 37°49' W 122°19'0 0.0
2018-Feb-15 08:00N 37°49' W 122°19'0 0.0
2018-Feb-15 07:30N 37°49' W 122°19'0 0.0
2018-Feb-15 07:00N 37°49' W 122°19'0 0.0
2018-Feb-15 06:30N 37°49' W 122°19'0 0.0
2018-Feb-15 06:00N 37°49' W 122°19'0 0.0
2018-Feb-15 05:30N 37°49' W 122°19'0 0.0
2018-Feb-15 05:00N 37°49' W 122°19'0 0.0
2018-Feb-15 04:30N 37°49' W 122°19'0 0.2
2018-Feb-15 04:01N 37°49' W 122°19'1 2.9
2018-Feb-15 03:30N 37°48' W 122°20'1 1.7
2018-Feb-15 03:00N 37°48' W 122°19'1 1.4
2018-Feb-15 02:30N 37°48' W 122°18'3 5.5
2018-Feb-15 02:00N 37°48' W 122°21'0 0.8
2018-Feb-15 01:30N 37°48' W 122°21'0 0.0
2018-Feb-15 01:00N 37°48' W 122°21'1 1.5
2018-Feb-15 00:30N 37°49' W 122°20'0 0.1
2018-Feb-15 00:01N 37°49' W 122°20'2 4.0
2018-Feb-14 23:30N 37°48' W 122°22'2 4.2
2018-Feb-14 23:00N 37°49' W 122°20'1 1.6
2018-Feb-14 22:31N 37°49' W 122°19'0 0.1
2018-Feb-14 22:01N 37°49' W 122°19'0 0.0
2018-Feb-14 21:29N 37°49' W 122°19'0 0.1
2018-Feb-14 21:00N 37°49' W 122°19'0 0.0
2018-Feb-14 20:30N 37°49' W 122°19'0 0.0
2018-Feb-14 20:00N 37°49' W 122°19'0 0.0
2018-Feb-14 19:30N 37°49' W 122°19'0 0.0
2018-Feb-14 19:01N 37°49' W 122°19'0 0.0
2018-Feb-14 18:30N 37°49' W 122°19'0 0.0
2018-Feb-14 18:00N 37°49' W 122°19'0 0.0
2018-Feb-14 17:30N 37°49' W 122°19'0 0.0
2018-Feb-14 17:00N 37°49' W 122°19'0 0.0
2018-Feb-14 16:30N 37°49' W 122°19'0 0.0
2018-Feb-14 16:00N 37°49' W 122°19'0 0.0
2018-Feb-14 15:31N 37°49' W 122°19'0 0.0
2018-Feb-14 15:00N 37°49' W 122°19'0 0.0
2018-Feb-14 14:30N 37°49' W 122°19'0 0.0
2018-Feb-14 14:00N 37°49' W 122°19'0 0.0
2018-Feb-14 13:30N 37°49' W 122°19'0 0.0
2018-Feb-14 13:01N 37°49' W 122°19'0 0.0
2018-Feb-14 12:30N 37°49' W 122°19'0 0.0
2018-Feb-14 12:00N 37°49' W 122°19'0 0.0
2018-Feb-14 11:31N 37°49' W 122°19'0 0.0
2018-Feb-14 11:00N 37°49' W 122°19'2 3.6
2018-Feb-14 10:30N 37°49' W 122°21'510.3
2018-Feb-14 10:01N 37°53' W 122°25'3 5.2
2018-Feb-14 09:29N 37°54' W 122°22'0 0.0
2018-Feb-14 09:01N 37°54' W 122°22'1 1.6
2018-Feb-14 08:30N 37°54' W 122°23'2 4.0
2018-Feb-14 08:01N 37°54' W 122°25'1 1.6
2018-Feb-14 07:31N 37°54' W 122°24'1 2.2
2018-Feb-14 07:00N 37°55' W 122°25'0 0.1
2018-Feb-14 06:30N 37°55' W 122°25'0 0.7
2018-Feb-14 06:00N 37°55' W 122°25'3 5.3
2018-Feb-14 05:30N 37°53' W 122°25'1 1.1
2018-Feb-14 05:00N 37°52' W 122°25'1 1.3
2018-Feb-14 04:30N 37°52' W 122°24'2 4.4
2018-Feb-14 04:00N 37°50' W 122°23'3 6.4
2018-Feb-14 03:30N 37°49' W 122°19'0 0.0
2018-Feb-14 03:00N 37°49' W 122°19'0 0.0
2018-Feb-14 02:30N 37°49' W 122°19'0 0.0
2018-Feb-14 02:00N 37°49' W 122°19'0 0.0
2018-Feb-14 01:30N 37°49' W 122°19'0 0.0
2018-Feb-14 01:01N 37°49' W 122°19'0 0.0
2018-Feb-14 00:30N 37°49' W 122°19'0 0.0
2018-Feb-14 00:00N 37°49' W 122°19'0 0.0
2018-Feb-13 23:30N 37°49' W 122°19'0 0.0
2018-Feb-13 23:01N 37°49' W 122°19'0 0.0
2018-Feb-13 22:30N 37°49' W 122°19'0 0.0
2018-Feb-13 22:00N 37°49' W 122°19'0 0.0
2018-Feb-13 21:30N 37°49' W 122°19'0 0.1
2018-Feb-13 20:59N 37°49' W 122°19'0 0.1
2018-Feb-13 20:30N 37°49' W 122°19'0 0.0
2018-Feb-13 20:01N 37°49' W 122°19'0 0.0
2018-Feb-13 19:30N 37°49' W 122°19'0 0.0
2018-Feb-13 19:00N 37°49' W 122°19'0 0.0
2018-Feb-13 18:30N 37°49' W 122°19'0 0.0
2018-Feb-13 18:00N 37°49' W 122°19'0 0.0
2018-Feb-13 17:31N 37°49' W 122°19'0 0.0
2018-Feb-13 17:00N 37°49' W 122°19'0 0.0
2018-Feb-13 16:30N 37°49' W 122°19'0 0.0
2018-Feb-13 16:00N 37°49' W 122°19'0 0.0
2018-Feb-13 15:30N 37°49' W 122°19'0 0.0
2018-Feb-13 15:00N 37°49' W 122°19'0 0.0
2018-Feb-13 14:30N 37°49' W 122°19'0 0.0
2018-Feb-13 14:01N 37°49' W 122°19'0 0.0
2018-Feb-13 13:30N 37°49' W 122°19'0 0.0
2018-Feb-13 13:00N 37°49' W 122°19'0 0.0
2018-Feb-13 12:30N 37°49' W 122°19'0 0.0
2018-Feb-13 12:00N 37°49' W 122°19'0 0.0
2018-Feb-13 11:30N 37°49' W 122°19'0 0.0
2018-Feb-13 11:00N 37°49' W 122°19'1 2.6
2018-Feb-13 10:30N 37°49' W 122°20'2 4.0
2018-Feb-13 10:01N 37°48' W 122°18'0 0.2
2018-Feb-13 09:30N 37°48' W 122°18'2 4.2
2018-Feb-13 09:00N 37°48' W 122°20'2 3.2
2018-Feb-13 08:31N 37°49' W 122°19'0 0.0
2018-Feb-13 08:00N 37°49' W 122°19'0 0.0
2018-Feb-13 07:30N 37°49' W 122°19'0 0.0
2018-Feb-13 07:00N 37°49' W 122°19'0 0.0
2018-Feb-13 06:30N 37°49' W 122°19'0 0.0
2018-Feb-13 06:00N 37°49' W 122°19'0 0.0
2018-Feb-13 05:30N 37°49' W 122°19'0 0.0
2018-Feb-13 05:01N 37°49' W 122°19'0 0.0
2018-Feb-13 04:30N 37°49' W 122°19'0 0.0
2018-Feb-13 04:00N 37°49' W 122°19'0 0.0
2018-Feb-13 03:29N 37°49' W 122°19'0 0.0
2018-Feb-13 03:00N 37°49' W 122°19'0 0.0
2018-Feb-13 02:30N 37°49' W 122°19'0 0.0
2018-Feb-13 02:00N 37°49' W 122°19'0 0.0
2018-Feb-13 01:31N 37°49' W 122°19'2 3.2
2018-Feb-13 01:01N 37°48' W 122°20'0 0.3
2018-Feb-13 00:31N 37°48' W 122°21'  
Track history (hours):
 
Tides and Currents Weather Stations Pressure Air Temp Water Temp Dewpoint Dewpoint Depression Visibility Wind Speed Wind Dir Waves Ship Positions

Liberty

Owner: AMNAV Maritime Corporation, Oakland, CA. More information available from US FCC via Universal Licensing System and Coast Guard Vessel Documentation Center.

Last reported at 2018-Feb-23 00:30 UTC. Time now 2018-Feb-23 00:57 UTC.
Position N 37°45' W 122°23'.

Length 20 m; draft 4.6 m.

Type: Towing. MMSI: 366998510.

Date/timePositionNaut miles runAvg speedWind from/ knotsBaromVisibWave heightAir tempDewpointWater temp
2018-Feb-23 00:30N 37°45' W 122°23'0 0.7
2018-Feb-23 00:01N 37°45' W 122°22'3 6.8
2018-Feb-22 23:30N 37°48' W 122°21'2 3.7
2018-Feb-22 23:00N 37°47' W 122°21'2 3.7
2018-Feb-22 22:30N 37°48' W 122°21'2 3.6
2018-Feb-22 22:00N 37°49' W 122°19'0 0.0
2018-Feb-22 21:30N 37°49' W 122°19'0 0.0
2018-Feb-22 21:00N 37°49' W 122°19'0 0.0
2018-Feb-22 20:30N 37°49' W 122°19'0 0.0
2018-Feb-22 20:00N 37°49' W 122°19'0 0.0
2018-Feb-22 19:30N 37°49' W 122°19'0 0.0
2018-Feb-22 19:00N 37°49' W 122°19'0 0.0
2018-Feb-22 18:30N 37°49' W 122°19'0 0.0
2018-Feb-22 18:00N 37°49' W 122°19'0 0.0
2018-Feb-22 17:30N 37°49' W 122°19'0 0.0
2018-Feb-22 17:00N 37°49' W 122°19'0 0.0
2018-Feb-22 16:29N 37°49' W 122°19'0 0.0
2018-Feb-22 16:00N 37°49' W 122°19'0 0.0
2018-Feb-22 15:30N 37°49' W 122°19'0 0.0
2018-Feb-22 15:00N 37°49' W 122°19'0 0.0
2018-Feb-22 14:30N 37°49' W 122°19'0 0.0
2018-Feb-22 14:01N 37°49' W 122°19'0 0.0
2018-Feb-22 13:30N 37°49' W 122°19'0 0.0
2018-Feb-22 13:00N 37°49' W 122°19'2 3.3
2018-Feb-22 12:30N 37°48' W 122°20'0 0.5
2018-Feb-22 12:00N 37°48' W 122°20'0 0.0
2018-Feb-22 11:30N 37°48' W 122°20'0 0.0
2018-Feb-22 11:00N 37°48' W 122°20'0 0.0
2018-Feb-22 10:30N 37°48' W 122°20'4 7.4
2018-Feb-22 10:00N 37°45' W 122°22'0 0.1
2018-Feb-22 09:30N 37°45' W 122°23'0 0.4
2018-Feb-22 09:00N 37°45' W 122°22'0 0.3
2018-Feb-22 08:30N 37°45' W 122°22'0 0.3
2018-Feb-22 08:00N 37°45' W 122°23'2 3.2
2018-Feb-22 07:31N 37°46' W 122°22'4 7.3
2018-Feb-22 07:01N 37°49' W 122°19'0 0.0
2018-Feb-22 06:31N 37°49' W 122°19'0 0.1
2018-Feb-22 06:00N 37°49' W 122°19'0 0.1
2018-Feb-22 05:30N 37°49' W 122°19'0 0.0
2018-Feb-22 05:00N 37°49' W 122°19'0 0.0
2018-Feb-22 04:31N 37°49' W 122°19'0 0.0
2018-Feb-22 04:01N 37°49' W 122°19'1 1.8
2018-Feb-22 03:30N 37°49' W 122°20'1 2.6
2018-Feb-22 03:00N 37°48' W 122°19'0 0.1
2018-Feb-22 02:30N 37°48' W 122°19'0 0.0
2018-Feb-22 02:00N 37°48' W 122°19'1 2.5
2018-Feb-22 01:30N 37°49' W 122°20'1 2.6
2018-Feb-22 01:00N 37°48' W 122°21'1 1.2
2018-Feb-22 00:31N 37°48' W 122°21'5 9.1
2018-Feb-22 00:00N 37°52' W 122°24'3 5.5
2018-Feb-21 23:30N 37°55' W 122°24'4 9.0
2018-Feb-21 23:01N 37°59' W 122°25'510.2
2018-Feb-21 22:30N 38°03' W 122°20'4 8.9
2018-Feb-21 22:00N 38°04' W 122°15'0 0.0
2018-Feb-21 21:31N 38°04' W 122°15'3 1.2
2018-Feb-21 19:18N 38°03' W 122°18'6 8.9
2018-Feb-21 18:40N 38°00' W 122°24'210.0
2018-Feb-21 18:30N 37°59' W 122°25'5 9.3
2018-Feb-21 18:00N 37°54' W 122°25'510.4
2018-Feb-21 17:30N 37°50' W 122°22'2 5.0
2018-Feb-21 17:00N 37°49' W 122°19'0 0.0
2018-Feb-21 16:30N 37°49' W 122°19'0 0.0
2018-Feb-21 16:00N 37°49' W 122°19'0 0.0
2018-Feb-21 15:30N 37°49' W 122°19'0 0.0
2018-Feb-21 15:00N 37°49' W 122°19'1 1.3
2018-Feb-21 14:30N 37°49' W 122°19'2 3.4
2018-Feb-21 14:01N 37°48' W 122°18'0 0.0
2018-Feb-21 13:30N 37°48' W 122°18'0 0.1
2018-Feb-21 13:00N 37°48' W 122°18'2 4.7
2018-Feb-21 12:30N 37°48' W 122°21'1 1.4
2018-Feb-21 12:00N 37°49' W 122°21'510.7
2018-Feb-21 11:30N 37°53' W 122°25'2 3.3
2018-Feb-21 11:00N 37°54' W 122°23'1 2.7
2018-Feb-21 10:31N 37°55' W 122°22'0 0.3
2018-Feb-21 10:01N 37°55' W 122°22'1 1.5
2018-Feb-21 09:31N 37°54' W 122°22'1 2.4
2018-Feb-21 09:00N 37°55' W 122°23'0 0.0
2018-Feb-21 08:30N 37°55' W 122°23'0 0.0
2018-Feb-21 08:00N 37°55' W 122°23'0 0.0
2018-Feb-21 07:30N 37°55' W 122°23'0 0.0
2018-Feb-21 07:00N 37°55' W 122°23'0 0.0
2018-Feb-21 06:30N 37°55' W 122°23'0 0.0
2018-Feb-21 06:00N 37°55' W 122°23'0 0.0
2018-Feb-21 05:30N 37°55' W 122°23'0 0.0
2018-Feb-21 05:00N 37°55' W 122°23'0 0.0
2018-Feb-21 04:30N 37°55' W 122°23'1 2.4
2018-Feb-21 04:00N 37°54' W 122°22'0 0.3
2018-Feb-21 03:30N 37°54' W 122°22'2 4.3
2018-Feb-21 03:00N 37°55' W 122°24'2 4.2
2018-Feb-21 02:30N 37°53' W 122°25'0 0.3
2018-Feb-21 02:00N 37°53' W 122°25'4 8.9
2018-Feb-21 01:30N 37°49' W 122°21'1 2.7
2018-Feb-21 01:00N 37°49' W 122°20'0 0.9
2018-Feb-21 00:30N 37°49' W 122°20'1 2.8
2018-Feb-21 00:00N 37°48' W 122°19'1 1.7
2018-Feb-20 23:31N 37°48' W 122°18'0 0.4
2018-Feb-20 23:00N 37°48' W 122°18'1 3.0
2018-Feb-20 22:30N 37°48' W 122°19'2 4.2
2018-Feb-20 22:00N 37°48' W 122°22'1 2.4
2018-Feb-20 21:30N 37°48' W 122°21'0 0.1
2018-Feb-20 21:00N 37°48' W 122°21'0 0.0
2018-Feb-20 20:30N 37°48' W 122°21'0 0.1
2018-Feb-20 20:00N 37°48' W 122°21'2 4.6
2018-Feb-20 19:30N 37°50' W 122°22'611.1
2018-Feb-20 19:01N 37°55' W 122°25'1 1.3
2018-Feb-20 18:30N 37°56' W 122°25'1 1.2
2018-Feb-20 18:00N 37°55' W 122°25'1 2.6
2018-Feb-20 17:30N 37°55' W 122°23'0 0.0
2018-Feb-20 17:00N 37°55' W 122°23'0 0.0
2018-Feb-20 16:30N 37°55' W 122°23'0 0.0
2018-Feb-20 16:00N 37°55' W 122°23'0 0.0
2018-Feb-20 15:30N 37°54' W 122°23'5 9.7
2018-Feb-20 15:00N 37°59' W 122°25'712.7
2018-Feb-20 14:28N 38°03' W 122°18'4 9.2
2018-Feb-20 14:00N 38°03' W 122°13'0 0.2
2018-Feb-20 13:30N 38°04' W 122°13'1 2.7
2018-Feb-20 13:01N 38°03' W 122°15'0 0.0
2018-Feb-20 12:30N 38°03' W 122°15'0 0.0
2018-Feb-20 12:00N 38°03' W 122°15'0 0.0
2018-Feb-20 11:30N 38°03' W 122°15'0 0.0
2018-Feb-20 11:00N 38°03' W 122°15'0 0.0
2018-Feb-20 10:30N 38°03' W 122°15'0 0.0
2018-Feb-20 10:00N 38°03' W 122°15'0 0.0
2018-Feb-20 09:31N 38°03' W 122°15'0 0.0
2018-Feb-20 09:00N 38°03' W 122°15'0 0.0
2018-Feb-20 08:30N 38°03' W 122°15'1 1.1
2018-Feb-20 08:00N 38°03' W 122°15'611.3
2018-Feb-20 07:31N 38°02' W 122°22'611.6
2018-Feb-20 07:00N 37°56' W 122°26'611.7
2018-Feb-20 06:30N 37°51' W 122°23'4 7.9
2018-Feb-20 06:00N 37°49' W 122°19'0 0.0
2018-Feb-20 05:30N 37°49' W 122°19'0 0.0
2018-Feb-20 05:00N 37°49' W 122°19'0 0.0
2018-Feb-20 04:30N 37°49' W 122°19'0 0.0
2018-Feb-20 04:00N 37°49' W 122°19'0 0.0
2018-Feb-20 03:30N 37°49' W 122°19'0 0.0
2018-Feb-20 03:00N 37°49' W 122°19'0 0.0
2018-Feb-20 02:30N 37°49' W 122°19'0 0.0
2018-Feb-20 02:00N 37°49' W 122°19'0 0.0
2018-Feb-20 01:30N 37°49' W 122°19'0 0.0
2018-Feb-20 01:00N 37°49' W 122°19'0 0.0
2018-Feb-20 00:30N 37°49' W 122°19'0 0.0
2018-Feb-20 00:00N 37°49' W 122°19'0 0.0
2018-Feb-19 23:30N 37°49' W 122°19'0 0.0
2018-Feb-19 23:00N 37°49' W 122°19'0 0.0
2018-Feb-19 22:30N 37°49' W 122°19'0 0.0
2018-Feb-19 22:00N 37°49' W 122°19'0 0.0
2018-Feb-19 21:30N 37°49' W 122°19'0 0.0
2018-Feb-19 21:00N 37°49' W 122°19'0 0.0
2018-Feb-19 20:30N 37°49' W 122°19'0 0.0
2018-Feb-19 20:00N 37°49' W 122°19'0 0.0
2018-Feb-19 19:30N 37°49' W 122°19'0 0.0
2018-Feb-19 19:00N 37°49' W 122°19'0 0.0
2018-Feb-19 18:30N 37°49' W 122°19'0 0.0
2018-Feb-19 18:00N 37°49' W 122°19'0 0.0
2018-Feb-19 17:30N 37°49' W 122°19'0 0.0
2018-Feb-19 17:00N 37°49' W 122°19'0 0.0
2018-Feb-19 16:30N 37°49' W 122°19'0 0.0
2018-Feb-19 16:00N 37°49' W 122°19'0 0.0
2018-Feb-19 15:30N 37°49' W 122°19'0 0.0
2018-Feb-19 15:00N 37°49' W 122°19'0 0.0
2018-Feb-19 14:30N 37°49' W 122°19'0 0.0
2018-Feb-19 14:00N 37°49' W 122°19'0 0.0
2018-Feb-19 13:29N 37°49' W 122°19'2 3.5
2018-Feb-19 13:00N 37°48' W 122°19'0 0.3
2018-Feb-19 12:30N 37°48' W 122°18'3 5.6
2018-Feb-19 12:00N 37°48' W 122°22'3 6.6
2018-Feb-19 11:30N 37°48' W 122°18'0 0.9
2018-Feb-19 11:00N 37°48' W 122°18'0 0.4
2018-Feb-19 10:30N 37°48' W 122°19'0 0.3
2018-Feb-19 10:01N 37°48' W 122°19'2 3.2
2018-Feb-19 09:30N 37°48' W 122°21'0 0.0
2018-Feb-19 09:00N 37°48' W 122°21'0 0.0
2018-Feb-19 08:30N 37°48' W 122°21'0 0.0
2018-Feb-19 08:00N 37°48' W 122°21'0 0.0
2018-Feb-19 07:30N 37°48' W 122°21'0 0.0
2018-Feb-19 07:00N 37°48' W 122°21'0 0.0
2018-Feb-19 06:30N 37°48' W 122°21'0 0.0
2018-Feb-19 06:00N 37°48' W 122°21'0 0.0
2018-Feb-19 05:30N 37°48' W 122°21'0 0.0
2018-Feb-19 05:01N 37°48' W 122°21'2 3.0
2018-Feb-19 04:30N 37°48' W 122°19'0 0.1
2018-Feb-19 04:00N 37°48' W 122°19'1 2.3
2018-Feb-19 03:30N 37°48' W 122°17'1 2.4
2018-Feb-19 03:00N 37°48' W 122°19'3 5.4
2018-Feb-19 02:30N 37°48' W 122°22'2 4.2
2018-Feb-19 02:01N 37°49' W 122°20'1 2.2
2018-Feb-19 01:30N 37°49' W 122°19'0 0.0
2018-Feb-19 01:00N 37°49' W 122°19'0 0.0
2018-Feb-19 00:30N 37°49' W 122°19'0 0.0
2018-Feb-19 00:00N 37°49' W 122°19'0 0.0
2018-Feb-18 23:30N 37°49' W 122°19'0 0.0
2018-Feb-18 23:00N 37°49' W 122°19'0 0.0
2018-Feb-18 22:30N 37°49' W 122°19'0 0.0
2018-Feb-18 22:00N 37°49' W 122°19'0 0.0
2018-Feb-18 21:30N 37°49' W 122°19'0 0.0
2018-Feb-18 21:00N 37°49' W 122°19'0 0.0
2018-Feb-18 20:30N 37°49' W 122°19'0 0.0
2018-Feb-18 20:00N 37°49' W 122°19'0 0.0
2018-Feb-18 19:30N 37°49' W 122°19'0 0.0
2018-Feb-18 19:00N 37°49' W 122°19'0 0.0
2018-Feb-18 18:30N 37°49' W 122°19'0 0.0
2018-Feb-18 18:00N 37°49' W 122°19'0 0.0
2018-Feb-18 17:30N 37°49' W 122°19'0 0.0
2018-Feb-18 17:00N 37°49' W 122°19'0 0.0
2018-Feb-18 16:30N 37°49' W 122°19'0 0.0
2018-Feb-18 16:00N 37°49' W 122°19'0 0.0
2018-Feb-18 15:30N 37°49' W 122°19'0 0.0
2018-Feb-18 15:00N 37°49' W 122°19'0 0.0
2018-Feb-18 14:30N 37°49' W 122°19'0 0.0
2018-Feb-18 14:00N 37°49' W 122°19'0 0.0
2018-Feb-18 13:30N 37°49' W 122°19'0 0.0
2018-Feb-18 13:00N 37°49' W 122°19'0 0.0
2018-Feb-18 12:30N 37°49' W 122°19'0 0.0
2018-Feb-18 12:00N 37°49' W 122°19'0 0.0
2018-Feb-18 11:30N 37°49' W 122°19'0 0.0
2018-Feb-18 11:00N 37°49' W 122°19'0 0.0
2018-Feb-18 10:30N 37°49' W 122°19'0 0.0
2018-Feb-18 10:00N 37°49' W 122°19'0 0.0
2018-Feb-18 09:30N 37°49' W 122°19'0 0.0
2018-Feb-18 09:00N 37°49' W 122°19'0 0.0
2018-Feb-18 08:30N 37°49' W 122°19'0 0.0
2018-Feb-18 08:00N 37°49' W 122°19'0 0.0
2018-Feb-18 07:30N 37°49' W 122°19'0 0.0
2018-Feb-18 07:00N 37°49' W 122°19'0 0.0
2018-Feb-18 06:30N 37°49' W 122°19'0 0.0
2018-Feb-18 06:00N 37°49' W 122°19'0 0.0
2018-Feb-18 05:30N 37°49' W 122°19'0 0.0
2018-Feb-18 05:00N 37°49' W 122°19'0 0.0
2018-Feb-18 04:30N 37°49' W 122°19'0 0.0
2018-Feb-18 04:00N 37°49' W 122°19'0 0.0
2018-Feb-18 03:30N 37°49' W 122°19'0 0.0
2018-Feb-18 03:00N 37°49' W 122°19'0 0.0
2018-Feb-18 02:30N 37°49' W 122°19'0 0.0
2018-Feb-18 02:00N 37°49' W 122°19'0 0.0
2018-Feb-18 01:30N 37°49' W 122°19'0 0.0
2018-Feb-18 01:00N 37°49' W 122°19'0 0.0
2018-Feb-18 00:30N 37°49' W 122°19'0 0.0
2018-Feb-18 00:00N 37°49' W 122°19'0 0.0
2018-Feb-17 23:30N 37°49' W 122°19'0 0.0
2018-Feb-17 23:00N 37°49' W 122°19'0 0.0
2018-Feb-17 22:30N 37°49' W 122°19'0 0.0
2018-Feb-17 22:00N 37°49' W 122°19'0 0.0
2018-Feb-17 21:30N 37°49' W 122°19'0 0.0
2018-Feb-17 21:00N 37°49' W 122°19'0 0.0
2018-Feb-17 20:30N 37°49' W 122°19'0 0.0
2018-Feb-17 20:00N 37°49' W 122°19'0 0.0
2018-Feb-17 19:30N 37°49' W 122°19'0 0.0
2018-Feb-17 19:00N 37°49' W 122°19'0 0.0
2018-Feb-17 18:30N 37°49' W 122°19'0 0.0
2018-Feb-17 18:00N 37°49' W 122°19'0 0.0
2018-Feb-17 17:30N 37°49' W 122°19'0 0.0
2018-Feb-17 17:00N 37°49' W 122°19'0 0.0
2018-Feb-17 16:30N 37°49' W 122°19'0 0.0
2018-Feb-17 16:00N 37°49' W 122°19'0 0.0
2018-Feb-17 15:30N 37°49' W 122°19'0 0.0
2018-Feb-17 15:00N 37°49' W 122°19'2 3.2
2018-Feb-17 14:30N 37°49' W 122°20'1 2.1
2018-Feb-17 14:00N 37°48' W 122°19'2 3.6
2018-Feb-17 13:30N 37°48' W 122°22'2 4.8
2018-Feb-17 13:00N 37°49' W 122°19'0 0.5
2018-Feb-17 12:30N 37°49' W 122°19'0 0.0
2018-Feb-17 12:00N 37°49' W 122°19'0 0.0
2018-Feb-17 11:30N 37°49' W 122°19'0 0.0
2018-Feb-17 11:00N 37°49' W 122°19'0 0.0
2018-Feb-17 10:30N 37°49' W 122°19'0 0.0
2018-Feb-17 10:00N 37°49' W 122°19'0 0.0
2018-Feb-17 09:30N 37°49' W 122°19'0 0.0
2018-Feb-17 09:00N 37°49' W 122°19'0 0.0
2018-Feb-17 08:30N 37°49' W 122°19'0 0.0
2018-Feb-17 08:00N 37°49' W 122°19'0 0.0
2018-Feb-17 07:30N 37°49' W 122°19'0 0.0
2018-Feb-17 07:00N 37°49' W 122°19'0 0.0
2018-Feb-17 06:30N 37°49' W 122°19'0 0.0
2018-Feb-17 06:00N 37°49' W 122°19'0 0.0
2018-Feb-17 05:30N 37°49' W 122°19'0 0.0
2018-Feb-17 05:00N 37°49' W 122°19'4 7.5
2018-Feb-17 04:30N 37°51' W 122°23'612.3
2018-Feb-17 04:00N 37°57' W 122°26'612.3
2018-Feb-17 03:30N 38°02' W 122°21'2 3.8
2018-Feb-17 03:00N 38°03' W 122°19'4 8.8
2018-Feb-17 02:31N 38°01' W 122°24'5 9.0
2018-Feb-17 02:00N 37°56' W 122°26'3 5.9
2018-Feb-17 01:30N 37°54' W 122°23'1 1.7
2018-Feb-17 01:00N 37°54' W 122°22'0 0.2
2018-Feb-17 00:31N 37°54' W 122°22'1 2.4
2018-Feb-17 00:00N 37°55' W 122°23'0 0.0
2018-Feb-16 23:30N 37°55' W 122°23'0 0.0
2018-Feb-16 23:00N 37°55' W 122°23'0 0.0
2018-Feb-16 22:30N 37°55' W 122°23'0 0.0
2018-Feb-16 22:00N 37°55' W 122°23'0 0.0
2018-Feb-16 21:30N 37°55' W 122°23'2 3.1
2018-Feb-16 21:01N 37°55' W 122°25'0 0.1
2018-Feb-16 20:30N 37°55' W 122°25'3 6.1
2018-Feb-16 20:00N 37°52' W 122°24'510.1
2018-Feb-16 19:30N 37°49' W 122°19'1 1.5
2018-Feb-16 19:00N 37°49' W 122°19'0 0.0
2018-Feb-16 18:30N 37°49' W 122°19'0 0.0
2018-Feb-16 18:00N 37°49' W 122°19'0 0.0
2018-Feb-16 17:30N 37°49' W 122°19'0 0.0
2018-Feb-16 17:00N 37°49' W 122°19'0 0.0
2018-Feb-16 16:30N 37°49' W 122°19'0 0.0
2018-Feb-16 16:00N 37°49' W 122°19'0 0.0
2018-Feb-16 15:30N 37°49' W 122°19'0 0.0
2018-Feb-16 15:00N 37°49' W 122°19'2 3.8
2018-Feb-16 14:30N 37°48' W 122°21'3 5.1
2018-Feb-16 14:00N 37°48' W 122°24'1 2.3
2018-Feb-16 13:30N 37°49' W 122°25'1 2.0
2018-Feb-16 13:01N 37°48' W 122°24'0 0.0
2018-Feb-16 12:30N 37°48' W 122°24'0 0.0
2018-Feb-16 12:00N 37°48' W 122°24'0 0.0
2018-Feb-16 11:30N 37°48' W 122°24'0 0.0
2018-Feb-16 11:01N 37°48' W 122°24'0 0.0
2018-Feb-16 10:30N 37°48' W 122°24'0 0.0
2018-Feb-16 10:00N 37°48' W 122°24'3 5.2
2018-Feb-16 09:30N 37°51' W 122°24'5 9.0
2018-Feb-16 09:00N 37°56' W 122°25'0 0.1
2018-Feb-16 08:30N 37°56' W 122°25'0 0.6
2018-Feb-16 08:00N 37°55' W 122°25'3 5.0
2018-Feb-16 07:30N 37°53' W 122°25'2 3.7
2018-Feb-16 07:00N 37°54' W 122°24'0 0.4
2018-Feb-16 06:30N 37°55' W 122°23'0 0.0
2018-Feb-16 06:00N 37°55' W 122°23'0 0.0
2018-Feb-16 05:30N 37°55' W 122°23'0 0.0
2018-Feb-16 05:00N 37°55' W 122°23'0 0.0
2018-Feb-16 04:30N 37°55' W 122°23'1 2.4
2018-Feb-16 04:00N 37°54' W 122°22'0 0.4
2018-Feb-16 03:30N 37°54' W 122°22'0 0.5
2018-Feb-16 03:01N 37°54' W 122°22'2 3.9
2018-Feb-16 02:31N 37°54' W 122°24'4 7.6
2018-Feb-16 02:00N 37°51' W 122°23'3 6.8
2018-Feb-16 01:30N 37°49' W 122°19'0 0.0
2018-Feb-16 01:00N 37°49' W 122°19'0 0.0
2018-Feb-16 00:30N 37°49' W 122°19'0 0.0
2018-Feb-16 00:00N 37°49' W 122°19'0 0.0
2018-Feb-15 23:30N 37°49' W 122°19'0 0.0
2018-Feb-15 23:00N 37°49' W 122°19'0 0.0
2018-Feb-15 22:30N 37°49' W 122°19'0 0.0
2018-Feb-15 22:00N 37°49' W 122°19'0 0.0
2018-Feb-15 21:30N 37°49' W 122°19'0 0.0
2018-Feb-15 21:00N 37°49' W 122°19'0 0.0
2018-Feb-15 20:30N 37°49' W 122°19'0 0.0
2018-Feb-15 20:00N 37°49' W 122°19'0 0.0
2018-Feb-15 19:30N 37°49' W 122°19'0 0.0
2018-Feb-15 19:00N 37°49' W 122°19'0 0.0
2018-Feb-15 18:30N 37°49' W 122°19'0 0.0
2018-Feb-15 18:00N 37°49' W 122°19'0 0.0
2018-Feb-15 17:30N 37°49' W 122°19'0 0.0
2018-Feb-15 17:00N 37°49' W 122°19'0 0.0
2018-Feb-15 16:30N 37°49' W 122°19'0 0.0
2018-Feb-15 16:00N 37°49' W 122°19'0 0.0
2018-Feb-15 15:30N 37°49' W 122°19'0 0.0
2018-Feb-15 15:00N 37°49' W 122°19'0 0.0
2018-Feb-15 14:30N 37°49' W 122°19'0 0.0
2018-Feb-15 14:00N 37°49' W 122°19'0 0.0
2018-Feb-15 13:30N 37°49' W 122°19'0 0.0
2018-Feb-15 13:00N 37°49' W 122°19'0 0.0
2018-Feb-15 12:30N 37°49' W 122°19'0 0.0
2018-Feb-15 12:00N 37°49' W 122°19'0 0.0
2018-Feb-15 11:30N 37°49' W 122°19'0 0.0
2018-Feb-15 11:00N 37°49' W 122°19'0 0.0
2018-Feb-15 10:30N 37°49' W 122°19'2 3.1
2018-Feb-15 10:00N 37°48' W 122°19'1 1.9
2018-Feb-15 09:30N 37°48' W 122°18'1 1.5
2018-Feb-15 09:00N 37°48' W 122°19'2 3.2
2018-Feb-15 08:30N 37°49' W 122°19'0 0.0
2018-Feb-15 08:00N 37°49' W 122°19'0 0.0
2018-Feb-15 07:30N 37°49' W 122°19'0 0.0
2018-Feb-15 07:00N 37°49' W 122°19'0 0.0
2018-Feb-15 06:30N 37°49' W 122°19'0 0.0
2018-Feb-15 06:00N 37°49' W 122°19'0 0.0
2018-Feb-15 05:30N 37°49' W 122°19'0 0.0
2018-Feb-15 05:00N 37°49' W 122°19'0 0.0
2018-Feb-15 04:30N 37°49' W 122°19'0 0.2
2018-Feb-15 04:01N 37°49' W 122°19'1 2.9
2018-Feb-15 03:30N 37°48' W 122°20'1 1.7
2018-Feb-15 03:00N 37°48' W 122°19'1 1.4
2018-Feb-15 02:30N 37°48' W 122°18'3 5.5
2018-Feb-15 02:00N 37°48' W 122°21'0 0.8
2018-Feb-15 01:30N 37°48' W 122°21'0 0.0
2018-Feb-15 01:00N 37°48' W 122°21'1 1.5
2018-Feb-15 00:30N 37°49' W 122°20'0 0.1
2018-Feb-15 00:01N 37°49' W 122°20'2 4.0
2018-Feb-14 23:30N 37°48' W 122°22'2 4.2
2018-Feb-14 23:00N 37°49' W 122°20'1 1.6
2018-Feb-14 22:31N 37°49' W 122°19'0 0.1
2018-Feb-14 22:01N 37°49' W 122°19'0 0.0
2018-Feb-14 21:29N 37°49' W 122°19'0 0.1
2018-Feb-14 21:00N 37°49' W 122°19'0 0.0
2018-Feb-14 20:30N 37°49' W 122°19'0 0.0
2018-Feb-14 20:00N 37°49' W 122°19'0 0.0
2018-Feb-14 19:30N 37°49' W 122°19'0 0.0
2018-Feb-14 19:01N 37°49' W 122°19'0 0.0
2018-Feb-14 18:30N 37°49' W 122°19'0 0.0
2018-Feb-14 18:00N 37°49' W 122°19'0 0.0
2018-Feb-14 17:30N 37°49' W 122°19'0 0.0
2018-Feb-14 17:00N 37°49' W 122°19'0 0.0
2018-Feb-14 16:30N 37°49' W 122°19'0 0.0
2018-Feb-14 16:00N 37°49' W 122°19'0 0.0
2018-Feb-14 15:31N 37°49' W 122°19'0 0.0
2018-Feb-14 15:00N 37°49' W 122°19'0 0.0
2018-Feb-14 14:30N 37°49' W 122°19'0 0.0
2018-Feb-14 14:00N 37°49' W 122°19'0 0.0
2018-Feb-14 13:30N 37°49' W 122°19'0 0.0
2018-Feb-14 13:01N 37°49' W 122°19'0 0.0
2018-Feb-14 12:30N 37°49' W 122°19'0 0.0
2018-Feb-14 12:00N 37°49' W 122°19'0 0.0
2018-Feb-14 11:31N 37°49' W 122°19'0 0.0
2018-Feb-14 11:00N 37°49' W 122°19'2 3.6
2018-Feb-14 10:30N 37°49' W 122°21'510.3
2018-Feb-14 10:01N 37°53' W 122°25'3 5.2
2018-Feb-14 09:29N 37°54' W 122°22'0 0.0
2018-Feb-14 09:01N 37°54' W 122°22'1 1.6
2018-Feb-14 08:30N 37°54' W 122°23'2 4.0
2018-Feb-14 08:01N 37°54' W 122°25'1 1.6
2018-Feb-14 07:31N 37°54' W 122°24'1 2.2
2018-Feb-14 07:00N 37°55' W 122°25'0 0.1
2018-Feb-14 06:30N 37°55' W 122°25'0 0.7
2018-Feb-14 06:00N 37°55' W 122°25'3 5.3
2018-Feb-14 05:30N 37°53' W 122°25'1 1.1
2018-Feb-14 05:00N 37°52' W 122°25'1 1.3
2018-Feb-14 04:30N 37°52' W 122°24'2 4.4
2018-Feb-14 04:00N 37°50' W 122°23'3 6.4
2018-Feb-14 03:30N 37°49' W 122°19'0 0.0
2018-Feb-14 03:00N 37°49' W 122°19'0 0.0
2018-Feb-14 02:30N 37°49' W 122°19'0 0.0
2018-Feb-14 02:00N 37°49' W 122°19'0 0.0
2018-Feb-14 01:30N 37°49' W 122°19'0 0.0
2018-Feb-14 01:01N 37°49' W 122°19'0 0.0
2018-Feb-14 00:30N 37°49' W 122°19'0 0.0
2018-Feb-14 00:00N 37°49' W 122°19'0 0.0
2018-Feb-13 23:30N 37°49' W 122°19'0 0.0
2018-Feb-13 23:01N 37°49' W 122°19'0 0.0
2018-Feb-13 22:30N 37°49' W 122°19'0 0.0
2018-Feb-13 22:00N 37°49' W 122°19'0 0.0
2018-Feb-13 21:30N 37°49' W 122°19'0 0.1
2018-Feb-13 20:59N 37°49' W 122°19'0 0.1
2018-Feb-13 20:30N 37°49' W 122°19'0 0.0
2018-Feb-13 20:01N 37°49' W 122°19'0 0.0
2018-Feb-13 19:30N 37°49' W 122°19'0 0.0
2018-Feb-13 19:00N 37°49' W 122°19'0 0.0
2018-Feb-13 18:30N 37°49' W 122°19'0 0.0
2018-Feb-13 18:00N 37°49' W 122°19'0 0.0
2018-Feb-13 17:31N 37°49' W 122°19'0 0.0
2018-Feb-13 17:00N 37°49' W 122°19'0 0.0
2018-Feb-13 16:30N 37°49' W 122°19'0 0.0
2018-Feb-13 16:00N 37°49' W 122°19'0 0.0
2018-Feb-13 15:30N 37°49' W 122°19'0 0.0
2018-Feb-13 15:00N 37°49' W 122°19'0 0.0
2018-Feb-13 14:30N 37°49' W 122°19'0 0.0
2018-Feb-13 14:01N 37°49' W 122°19'0 0.0
2018-Feb-13 13:30N 37°49' W 122°19'0 0.0
2018-Feb-13 13:00N 37°49' W 122°19'0 0.0
2018-Feb-13 12:30N 37°49' W 122°19'0 0.0
2018-Feb-13 12:00N 37°49' W 122°19'0 0.0
2018-Feb-13 11:30N 37°49' W 122°19'0 0.0
2018-Feb-13 11:00N 37°49' W 122°19'1 2.6
2018-Feb-13 10:30N 37°49' W 122°20'2 4.0
2018-Feb-13 10:01N 37°48' W 122°18'0 0.2
2018-Feb-13 09:30N 37°48' W 122°18'2 4.2
2018-Feb-13 09:00N 37°48' W 122°20'2 3.2
2018-Feb-13 08:31N 37°49' W 122°19'0 0.0
2018-Feb-13 08:00N 37°49' W 122°19'0 0.0
2018-Feb-13 07:30N 37°49' W 122°19'0 0.0
2018-Feb-13 07:00N 37°49' W 122°19'0 0.0
2018-Feb-13 06:30N 37°49' W 122°19'0 0.0
2018-Feb-13 06:00N 37°49' W 122°19'0 0.0
2018-Feb-13 05:30N 37°49' W 122°19'0 0.0
2018-Feb-13 05:01N 37°49' W 122°19'0 0.0
2018-Feb-13 04:30N 37°49' W 122°19'0 0.0
2018-Feb-13 04:00N 37°49' W 122°19'0 0.0
2018-Feb-13 03:29N 37°49' W 122°19'0 0.0
2018-Feb-13 03:00N 37°49' W 122°19'0 0.0
2018-Feb-13 02:30N 37°49' W 122°19'0 0.0
2018-Feb-13 02:00N 37°49' W 122°19'0 0.0
2018-Feb-13 01:31N 37°49' W 122°19'2 3.2
2018-Feb-13 01:01N 37°48' W 122°20'0 0.3
2018-Feb-13 00:31N 37°48' W 122°21'  

Dump ship's entire track history